Time;durP1;ratioP1;P1;durP2;ratioP2;P2;SDS_P1;SDS_P2;PMS_P1;PMS_P2;Temp;Humidity;BMP_temperature;BMP_pressure;BME280_temperature;BME280_humidity;BME280_pressure;Samples;Min_cycle;Max_cycle;Signal;HPM_P1;HPM_P2
2022/05/11 00:01:36;;;;;;;4.65;1.63;;;;;;;25.61;35.44;101134.94;5036410;28;20060;-64
2022/05/11 00:04:03;;;;;;;1.40;1.25;;;;;;;25.60;35.98;101135.97;5036229;28;20053;-64
2022/05/11 00:06:29;;;;;;;5.82;1.35;;;;;;;25.59;35.72;101138.97;5036267;28;20060;-64
2022/05/11 00:08:56;;;;;;;2.45;1.80;;;;;;;25.58;35.65;101127.13;5036246;28;20055;-64
2022/05/11 00:11:22;;;;;;;3.58;1.40;;;;;;;25.55;35.71;101119.34;5036147;28;20017;-64
2022/05/11 00:13:47;;;;;;;1.98;1.42;;;;;;;25.53;35.75;101121.47;5018856;28;20021;-65
2022/05/11 00:16:13;;;;;;;8.80;1.50;;;;;;;25.55;35.64;101118.50;5036064;28;20044;-64
2022/05/11 00:18:39;;;;;;;3.08;1.33;;;;;;;25.55;35.74;101113.00;5036101;28;20435;-64
2022/05/11 00:21:05;;;;;;;5.13;1.80;;;;;;;25.55;35.93;101119.34;5036045;28;20395;-64
2022/05/11 00:23:30;;;;;;;1.75;1.30;;;;;;;25.52;35.76;101114.28;5035843;28;20022;-64
2022/05/11 00:25:56;;;;;;;11.68;1.85;;;;;;;25.55;36.23;101119.34;5035882;28;20052;-63
2022/05/11 00:28:21;;;;;;;1.92;1.20;;;;;;;25.55;36.13;101115.75;5035793;28;20036;-65
2022/05/11 00:30:47;;;;;;;3.72;1.63;;;;;;;25.55;35.97;101108.34;5035229;28;20076;-64
2022/05/11 00:33:13;;;;;;;5.30;2.10;;;;;;;25.57;35.72;101109.00;5035935;28;20034;-63
2022/05/11 00:35:39;;;;;;;3.28;1.42;;;;;;;25.58;35.66;101112.56;5035768;28;20051;-64
2022/05/11 00:38:05;;;;;;;4.88;1.17;;;;;;;25.58;35.57;101113.41;5035597;28;20029;-64
2022/05/11 00:40:31;;;;;;;11.73;1.52;;;;;;;25.58;35.82;101101.59;5035714;28;20032;-64
2022/05/11 00:42:56;;;;;;;4.25;1.73;;;;;;;25.57;36.13;101105.41;5035742;28;20033;-64
2022/05/11 00:45:21;;;;;;;3.58;1.77;;;;;;;25.53;36.16;101088.53;5017986;28;20075;-63
2022/05/11 00:47:55;;;;;;;5.65;1.70;;;;;;;25.48;36.34;101091.13;5035394;28;20071;-64
2022/05/11 00:50:30;;;;;;;5.15;1.60;;;;;;;25.44;36.17;101085.19;5035398;28;20021;-65
2022/05/11 00:53:00;;;;;;;6.10;1.70;;;;;;;25.42;36.14;101081.81;5017727;28;20029;-64
2022/05/11 00:55:29;;;;;;;2.58;1.85;;;;;;;25.40;35.55;101072.13;5035230;28;20045;-64
2022/05/11 00:58:02;;;;;;;3.55;1.80;;;;;;;25.37;36.18;101078.06;5018033;28;20037;-64
2022/05/11 01:00:28;;;;;;;5.45;1.63;;;;;;;25.33;36.08;101069.44;5035356;28;20037;-64
2022/05/11 01:02:58;;;;;;;2.90;1.65;;;;;;;25.30;35.56;101063.53;5035414;28;20032;-64
2022/05/11 01:05:23;;;;;;;2.30;1.20;;;;;;;25.27;35.56;101066.72;5035284;28;20045;-64
2022/05/11 01:07:51;;;;;;;5.05;1.55;;;;;;;25.25;36.04;101063.34;5035027;28;20033;-64
2022/05/11 01:10:17;;;;;;;4.95;1.30;;;;;;;25.22;36.50;101061.88;5017344;28;20036;-64
2022/05/11 01:12:44;;;;;;;3.97;1.52;;;;;;;25.17;35.48;101061.72;5034945;28;20029;-64
2022/05/11 01:15:12;;;;;;;5.70;1.50;;;;;;;25.15;36.12;101063.00;5035220;28;20028;-64
2022/05/11 01:17:38;;;;;;;10.43;2.40;;;;;;;25.11;36.20;101061.72;5017226;28;20072;-64
2022/05/11 01:20:06;;;;;;;4.28;1.42;;;;;;;25.08;36.50;101070.38;5017210;28;20040;-64
2022/05/11 01:22:45;;;;;;;4.28;1.83;;;;;;;25.05;36.42;101068.09;5017376;28;20037;-64
2022/05/11 01:25:12;;;;;;;3.10;1.40;;;;;;;25.01;36.42;101062.22;5017100;28;20032;-65
2022/05/11 01:27:42;;;;;;;5.18;1.67;;;;;;;24.97;35.93;101054.63;5017166;28;20087;-65
2022/05/11 01:30:13;;;;;;;3.40;1.90;;;;;;;24.90;35.79;101054.69;5034628;28;20029;-64
2022/05/11 01:32:41;;;;;;;7.25;1.70;;;;;;;24.85;36.42;101044.34;5034995;28;20433;-64
2022/05/11 01:35:37;;;;;;;12.05;2.25;;;;;;;24.78;36.45;101043.50;5034603;28;20029;-65
2022/05/11 01:38:38;;;;;;;7.97;1.63;;;;;;;24.73;36.37;101037.84;5034763;28;20037;-65
2022/05/11 01:41:03;;;;;;;4.70;1.42;;;;;;;24.68;36.92;101039.56;5015886;28;20029;-64
2022/05/11 01:43:32;;;;;;;4.75;1.80;;;;;;;24.63;36.14;101031.97;5016899;28;20083;-65
2022/05/11 01:45:58;;;;;;;7.25;1.83;;;;;;;24.60;36.47;101026.91;5034460;28;20390;-64
2022/05/11 01:48:23;;;;;;;2.85;1.67;;;;;;;24.58;37.00;101026.28;5034232;28;20033;-65
2022/05/11 01:50:49;;;;;;;2.13;1.20;;;;;;;24.56;36.83;101027.56;5034437;28;20080;-65
2022/05/11 01:53:15;;;;;;;4.78;1.88;;;;;;;24.54;37.18;101026.94;5016576;28;20018;-64
2022/05/11 01:55:40;;;;;;;10.52;2.55;;;;;;;24.52;36.18;101024.41;5034044;28;20053;-64
2022/05/11 01:58:07;;;;;;;7.30;1.60;;;;;;;24.52;37.06;101024.41;5034067;28;20032;-65
2022/05/11 02:00:36;;;;;;;7.80;1.90;;;;;;;24.53;36.67;101017.03;5034425;28;20087;-64
2022/05/11 02:03:02;;;;;;;8.60;2.25;;;;;;;24.54;36.96;101016.81;5034006;28;20029;-64
2022/05/11 02:08:11;;;;;;;4.47;1.92;;;;;;;24.56;36.78;101017.47;5033928;28;20095;-64
2022/05/11 02:10:38;;;;;;;3.83;1.90;;;;;;;24.57;36.84;101013.63;5033830;28;20030;-64
2022/05/11 02:13:03;;;;;;;5.28;1.80;;;;;;;24.59;36.32;101013.44;5033876;28;20021;-64
2022/05/11 02:15:29;;;;;;;2.25;1.65;;;;;;;24.59;37.06;101017.03;5033695;28;20113;-64
2022/05/11 02:17:54;;;;;;;7.43;1.60;;;;;;;24.57;36.56;101010.91;5033699;28;20128;-64
2022/05/11 02:20:21;;;;;;;4.57;1.92;;;;;;;24.56;36.13;101013.88;5033940;28;20429;-64
2022/05/11 02:22:46;;;;;;;5.30;2.35;;;;;;;24.52;36.11;101007.97;5033556;28;20108;-64
2022/05/11 02:25:13;;;;;;;4.45;2.70;;;;;;;24.46;36.07;101002.50;5033625;28;20076;-65
2022/05/11 02:27:39;;;;;;;8.93;2.20;;;;;;;24.41;36.68;101005.06;5033672;28;20030;-64
2022/05/11 02:30:07;;;;;;;3.33;1.75;;;;;;;24.37;36.02;100999.19;5033591;28;20029;-65
2022/05/11 02:32:33;;;;;;;4.10;2.17;;;;;;;24.33;36.70;100997.91;5033492;28;20048;-64
2022/05/11 02:35:13;;;;;;;2.67;1.70;;;;;;;24.27;36.63;101005.09;5033459;28;20471;-65
2022/05/11 02:37:42;;;;;;;9.50;3.03;;;;;;;24.21;36.89;101000.47;5033968;28;20022;-64
2022/05/11 02:40:08;;;;;;;5.22;2.42;;;;;;;24.18;36.67;101000.06;5033648;28;20032;-64
2022/05/11 02:42:33;;;;;;;3.70;2.08;;;;;;;24.14;36.88;101007.03;5015592;28;20049;-64
2022/05/11 02:44:59;;;;;;;3.85;1.90;;;;;;;24.10;36.75;101003.88;5033268;28;20021;-64
2022/05/11 02:47:24;;;;;;;4.93;2.03;;;;;;;24.08;36.91;101010.56;5033381;28;20068;-64
2022/05/11 02:49:49;;;;;;;4.68;2.03;;;;;;;24.07;36.95;101004.25;5033302;28;20029;-64
2022/05/11 02:52:17;;;;;;;5.78;1.90;;;;;;;24.05;36.85;101000.91;5033254;28;20028;-64
2022/05/11 02:54:44;;;;;;;4.13;2.00;;;;;;;24.01;36.56;101005.09;5033002;28;20133;-64
2022/05/11 02:57:09;;;;;;;5.68;2.45;;;;;;;23.95;37.00;100999.66;5033531;28;20025;-64
2022/05/11 02:59:34;;;;;;;2.90;2.33;;;;;;;23.88;36.60;101005.13;5033273;28;20052;-64
2022/05/11 03:02:00;;;;;;;2.92;1.95;;;;;;;23.82;37.94;100999.66;5033116;28;20037;-64
2022/05/11 03:04:25;;;;;;;7.68;2.22;;;;;;;23.75;37.84;100984.09;5033397;28;20056;-65
2022/05/11 03:06:51;;;;;;;4.65;2.35;;;;;;;23.70;37.22;100986.59;5033263;28;20026;-64
2022/05/11 03:09:17;;;;;;;7.43;2.65;;;;;;;23.65;38.14;100994.59;5033019;28;20025;-64
2022/05/11 03:11:44;;;;;;;8.85;2.33;;;;;;;23.62;38.00;100992.28;5015469;28;20026;-64
2022/05/11 03:14:09;;;;;;;7.18;2.25;;;;;;;23.60;37.23;100985.34;5033186;28;20108;-64
2022/05/11 03:16:36;;;;;;;4.40;2.03;;;;;;;23.59;37.65;100992.69;5033016;28;20435;-64
2022/05/11 03:19:02;;;;;;;8.73;1.80;;;;;;;23.55;37.26;100980.50;5033122;28;20028;-64
2022/05/11 03:21:28;;;;;;;8.93;2.53;;;;;;;23.55;38.18;100977.78;5033294;28;20030;-64
2022/05/11 03:23:54;;;;;;;8.50;2.70;;;;;;;23.53;37.92;100979.91;5032920;28;20116;-64
2022/05/11 03:26:20;;;;;;;3.20;2.22;;;;;;;23.54;37.17;100981.56;5015388;28;20036;-65
2022/05/11 03:28:45;;;;;;;4.65;2.63;;;;;;;23.53;37.50;100977.16;5033184;28;20045;-65
2022/05/11 03:31:10;;;;;;;6.28;1.85;;;;;;;23.56;37.07;100979.44;5032812;28;20029;-64
2022/05/11 03:36:20;;;;;;;9.10;2.42;;;;;;;23.58;38.27;100977.34;5032886;28;20029;-64
2022/05/11 03:38:46;;;;;;;11.13;2.65;;;;;;;23.58;38.34;100982.84;5033112;28;20463;-64
2022/05/11 03:41:11;;;;;;;9.35;2.35;;;;;;;23.58;37.49;100960.94;5032795;28;20028;-64
2022/05/11 03:43:36;;;;;;;2.65;2.45;;;;;;;23.57;37.30;100969.34;5032722;28;20021;-64
2022/05/11 03:46:02;;;;;;;7.47;2.10;;;;;;;23.56;38.10;100973.16;5032802;28;20026;-64
2022/05/11 03:48:27;;;;;;;10.65;2.35;;;;;;;23.53;37.48;100966.22;5032694;28;20022;-65
2022/05/11 03:50:53;;;;;;;4.65;2.10;;;;;;;23.51;38.21;100964.72;5032781;28;20033;-64
2022/05/11 03:53:18;;;;;;;4.68;2.17;;;;;;;23.48;38.34;100971.44;5032691;28;20075;-65
2022/05/11 03:55:43;;;;;;;4.15;2.35;;;;;;;23.45;38.50;100969.13;4998632;28;20049;-65
2022/05/11 03:58:09;;;;;;;6.13;2.45;;;;;;;23.43;38.34;100962.19;5015036;28;20025;-64
2022/05/11 04:00:34;;;;;;;5.60;1.90;;;;;;;23.39;37.85;100955.47;5032795;28;20100;-65
2022/05/11 04:02:59;;;;;;;8.57;2.60;;;;;;;23.36;37.53;100959.44;5032696;28;20072;-64
2022/05/11 04:05:25;;;;;;;5.57;2.28;;;;;;;23.32;37.67;100954.56;5035246;28;20100;-64
2022/05/11 04:07:51;;;;;;;6.60;2.70;;;;;;;23.31;38.04;100959.19;5018562;28;20047;-63
2022/05/11 04:10:17;;;;;;;6.95;2.30;;;;;;;23.30;38.53;100954.81;5036056;28;20021;-64
2022/05/11 04:12:43;;;;;;;5.60;2.58;;;;;;;23.28;37.92;100948.72;5036363;28;20036;-65
2022/05/11 04:15:10;;;;;;;9.27;2.10;;;;;;;23.26;37.86;100950.78;5036096;28;20029;-65
2022/05/11 04:17:35;;;;;;;7.63;2.80;;;;;;;23.25;38.61;100954.59;5036050;28;20021;-65
2022/05/11 04:20:02;;;;;;;3.85;1.98;;;;;;;23.24;37.62;100955.63;5035975;28;20063;-65
2022/05/11 04:22:27;;;;;;;4.40;2.20;;;;;;;23.24;38.81;100952.91;5035888;28;20025;-64
2022/05/11 04:24:52;;;;;;;4.95;2.85;;;;;;;23.25;38.40;100954.59;5035972;28;20037;-64
2022/05/11 04:27:18;;;;;;;5.47;2.67;;;;;;;23.26;37.75;100947.22;5035841;28;20028;-64
2022/05/11 04:29:43;;;;;;;5.97;2.72;;;;;;;23.25;37.87;100949.13;5035784;28;20109;-65
2022/05/11 04:32:10;;;;;;;3.40;1.83;;;;;;;23.27;37.65;100948.91;5035635;28;20379;-65
2022/05/11 04:34:39;;;;;;;7.93;2.85;;;;;;;23.28;37.90;100947.88;5036053;28;20030;-64
2022/05/11 04:37:04;;;;;;;5.05;2.25;;;;;;;23.30;38.83;100943.88;5017929;28;20479;-64
2022/05/11 04:39:30;;;;;;;7.88;2.83;;;;;;;23.30;38.40;100946.59;5035656;28;20017;-65
2022/05/11 04:41:55;;;;;;;5.65;3.45;;;;;;;23.32;38.84;100949.97;5035729;28;20052;-65
2022/05/11 04:44:21;;;;;;;6.03;2.55;;;;;;;23.40;38.61;100941.56;5035489;28;20032;-64
2022/05/11 04:46:46;;;;;;;8.23;3.40;;;;;;;23.47;37.62;100936.13;5035505;28;20471;-64
2022/05/11 04:49:19;;;;;;;5.50;2.97;;;;;;;23.55;38.71;100950.44;5035407;28;20498;-65
2022/05/11 04:51:44;;;;;;;;;;;;;;;23.61;37.59;100938.66;5035822;28;20021;-64
2022/05/11 04:54:11;;;;;;;4.88;2.55;;;;;;;23.68;37.38;100933.16;5035202;28;19908;-64
2022/05/11 04:56:38;;;;;;;5.85;2.55;;;;;;;23.78;38.40;100939.88;5035455;28;20525;-64
2022/05/11 04:59:05;;;;;;;7.45;2.65;;;;;;;23.89;38.54;100932.94;5035200;28;20112;-64
2022/05/11 05:01:30;;;;;;;4.20;2.65;;;;;;;24.01;37.91;100927.66;5035375;28;20094;-64
2022/05/11 05:03:55;;;;;;;4.93;3.35;;;;;;;24.11;38.40;100928.91;5034915;28;20026;-64
2022/05/11 05:06:21;;;;;;;4.53;2.40;;;;;;;24.22;37.71;100928.25;5035272;28;20041;-64
2022/05/11 05:08:46;;;;;;;6.03;2.67;;;;;;;24.37;37.83;100932.63;5035038;28;20426;-64
2022/05/11 05:11:12;;;;;;;5.40;3.03;;;;;;;24.47;37.73;100924.75;5035029;28;20033;-64
2022/05/11 05:13:38;;;;;;;7.18;3.22;;;;;;;24.60;37.82;100921.97;5035296;28;20076;-64
2022/05/11 05:16:03;;;;;;;3.22;2.50;;;;;;;24.73;37.87;100928.25;5034732;28;20033;-64
2022/05/11 05:18:29;;;;;;;4.10;2.72;;;;;;;24.86;37.74;100922.69;5034754;28;20463;-64
2022/05/11 05:20:55;;;;;;;3.90;2.75;;;;;;;24.98;37.30;100925.59;5034838;28;20057;-65
2022/05/11 05:23:21;;;;;;;4.57;2.53;;;;;;;25.11;37.52;100917.25;5034911;28;20454;-64
2022/05/11 05:25:47;;;;;;;8.18;3.10;;;;;;;25.25;36.57;100928.97;5034764;28;20026;-65
2022/05/11 05:31:06;;;;;;;5.35;2.33;;;;;;;25.53;36.66;100929.41;5034639;28;20398;-65
2022/05/11 05:33:36;;;;;;;6.63;2.50;;;;;;;25.67;36.25;100936.47;5034504;28;20063;-65
2022/05/11 05:36:02;;;;;;;6.80;3.13;;;;;;;25.82;36.34;100931.47;5034473;28;20028;-64
2022/05/11 05:38:28;;;;;;;5.47;2.72;;;;;;;25.96;36.29;100934.91;5034728;28;20121;-64
2022/05/11 05:40:54;;;;;;;5.13;3.00;;;;;;;26.12;36.21;100922.47;5034407;28;20451;-65
2022/05/11 05:43:23;;;;;;;9.05;3.63;;;;;;;26.31;35.95;100932.44;5034228;28;20399;-66
2022/05/11 05:45:53;;;;;;;10.52;3.28;;;;;;;26.48;35.95;100941.72;5034360;28;20029;-64
2022/05/11 05:48:19;;;;;;;9.63;3.17;;;;;;;26.67;35.89;100946.13;5034203;28;20116;-64
2022/05/11 05:50:45;;;;;;;5.13;2.83;;;;;;;26.84;35.57;100938.94;5034676;28;20033;-63
2022/05/11 05:53:11;;;;;;;6.22;2.97;;;;;;;27.01;35.51;100944.63;5034174;28;20033;-65
2022/05/11 05:55:36;;;;;;;7.07;2.63;;;;;;;27.17;34.93;100944.81;5033878;28;20045;-64
2022/05/11 05:58:03;;;;;;;5.55;2.78;;;;;;;27.32;35.21;100946.28;5034045;28;20045;-64
2022/05/11 06:00:29;;;;;;;5.95;3.00;;;;;;;27.46;35.34;100956.03;5034228;28;20033;-64
2022/05/11 06:02:55;;;;;;;4.50;2.67;;;;;;;27.59;34.57;100953.03;5034237;28;20059;-64
2022/05/11 06:05:20;;;;;;;17.30;3.80;;;;;;;27.74;34.96;100950.69;5033901;28;20030;-64
2022/05/11 06:07:45;;;;;;;4.65;2.45;;;;;;;27.87;34.08;100952.34;5033814;28;20454;-64
2022/05/11 06:10:11;;;;;;;7.90;3.22;;;;;;;27.99;34.75;100951.28;5033833;28;20032;-64
2022/05/11 06:12:36;;;;;;;3.55;2.60;;;;;;;28.11;34.04;100954.06;5033846;28;20018;-64
2022/05/11 06:15:02;;;;;;;7.63;2.70;;;;;;;28.24;33.61;100951.03;5033658;28;20021;-64
2022/05/11 06:17:29;;;;;;;7.63;3.40;;;;;;;28.36;33.82;100942.75;5033663;28;20060;-64
2022/05/11 06:19:54;;;;;;;9.43;2.70;;;;;;;28.48;33.79;100951.81;5033673;28;20017;-64
2022/05/11 06:22:21;;;;;;;4.38;2.83;;;;;;;28.57;33.24;100953.13;5033550;28;20549;-64
2022/05/11 06:24:46;;;;;;;7.28;3.00;;;;;;;28.69;33.79;100951.19;5033847;28;20024;-64
2022/05/11 06:27:17;;;;;;;6.82;2.72;;;;;;;28.80;33.00;100953.91;5033625;28;20374;-64
2022/05/11 06:29:50;;;;;;;6.45;2.83;;;;;;;28.95;33.78;100942.31;5033802;28;20499;-64
2022/05/11 06:32:18;;;;;;;;;;;;;;;29.08;33.61;100942.03;5016248;28;20029;-64
2022/05/11 06:34:44;;;;;;;3.47;2.33;;;;;;;29.23;33.80;100949.78;5033815;28;20385;-64
2022/05/11 06:37:09;;;;;;;7.30;2.70;;;;;;;29.36;32.89;100950.31;5033716;28;20108;-65
2022/05/11 06:39:35;;;;;;;7.68;2.45;;;;;;;29.51;32.26;100946.13;5033520;28;20034;-64
2022/05/11 06:42:01;;;;;;;6.32;2.25;;;;;;;29.63;33.12;100949.63;5033533;28;20052;-64
2022/05/11 06:44:26;;;;;;;8.82;2.00;;;;;;;29.78;32.48;100944.34;5033988;28;20120;-65
2022/05/11 06:46:51;;;;;;;2.30;1.40;;;;;;;29.90;32.53;100945.13;5033386;28;20487;-65
2022/05/11 06:49:19;;;;;;;4.53;1.90;;;;;;;30.04;31.93;100946.44;5033369;28;20498;-64
2022/05/11 06:51:44;;;;;;;4.97;1.70;;;;;;;30.17;32.04;100950.78;5033277;28;20104;-65
2022/05/11 06:59:38;;;;;;;6.85;1.55;;;;;;;30.63;31.38;100944.75;5033088;28;20573;-66
2022/05/11 07:02:04;;;;;;;4.30;1.85;;;;;;;30.74;31.34;100945.75;5033053;28;20033;-64
2022/05/11 07:04:33;;;;;;;2.67;1.77;;;;;;;30.84;31.02;100946.69;5033358;28;20075;-64
2022/05/11 07:06:59;;;;;;;1.88;0.70;;;;;;;30.97;30.59;100940.75;5033317;28;20397;-63
2022/05/11 07:09:25;;;;;;;2.20;1.23;;;;;;;31.09;30.51;100937.84;5033144;28;20026;-65
2022/05/11 07:14:36;;;;;;;3.05;1.20;;;;;;;31.40;30.20;100934.25;5033336;28;20083;-65
2022/05/11 07:17:01;;;;;;;2.85;1.35;;;;;;;31.49;29.87;100932.69;5032984;28;20479;-65
2022/05/11 07:19:27;;;;;;;2.75;1.45;;;;;;;31.59;29.98;100932.78;5032977;28;20467;-66
2022/05/11 07:21:53;;;;;;;3.20;1.30;;;;;;;31.72;29.83;100934.25;5032951;28;20099;-66
2022/05/11 07:24:19;;;;;;;1.40;1.20;;;;;;;31.88;29.40;100938.81;5032940;28;20029;-65
2022/05/11 07:26:44;;;;;;;8.25;1.50;;;;;;;32.07;29.61;100936.47;5033362;28;20356;-65
2022/05/11 07:29:09;;;;;;;3.40;1.50;;;;;;;32.20;29.14;100935.97;5033096;28;20360;-64
2022/05/11 07:31:35;;;;;;;6.18;1.35;;;;;;;32.30;29.33;100933.28;5032935;28;20032;-64
2022/05/11 07:34:00;;;;;;;2.83;1.63;;;;;;;32.40;28.64;100927.75;5033007;28;20022;-65
2022/05/11 07:36:26;;;;;;;1.02;0.85;;;;;;;32.49;28.99;100931.69;5033066;28;20036;-66
2022/05/11 07:38:51;;;;;;;2.90;0.90;;;;;;;32.56;27.95;100931.47;5033125;28;20025;-65
2022/05/11 07:41:17;;;;;;;1.73;1.00;;;;;;;32.61;28.12;100929.53;5036706;28;20116;-64
2022/05/11 07:43:42;;;;;;;2.00;1.15;;;;;;;32.72;28.29;100928.47;5036666;28;20176;-64
2022/05/11 07:46:08;;;;;;;3.00;1.10;;;;;;;32.82;28.01;100930.44;5036889;28;20025;-65
2022/05/11 07:48:33;;;;;;;1.92;1.02;;;;;;;32.98;28.50;100925.75;5036678;28;20164;-64
2022/05/11 07:50:58;;;;;;;2.10;0.80;;;;;;;33.12;27.31;100935.25;5036498;28;20031;-65
2022/05/11 07:53:24;;;;;;;3.42;0.82;;;;;;;33.19;28.11;100936.66;5036389;28;20025;-65
2022/05/11 07:59:52;;;;;;;1.80;0.98;;;;;;;33.33;26.81;100936.94;5036367;28;20048;-65
2022/05/11 08:01:18;;;;;;;2.13;1.17;;;;;;;33.56;26.95;100941.13;5036327;28;20467;-65
2022/05/11 08:03:44;;;;;;;3.42;1.30;;;;;;;33.64;26.86;100933.06;5036189;28;20105;-64
2022/05/11 08:06:09;;;;;;;6.43;1.15;;;;;;;33.80;27.08;100929.19;5036276;28;20025;-67
2022/05/11 08:08:34;;;;;;;3.47;1.30;;;;;;;33.97;26.16;100934.44;5036238;28;20075;-66
2022/05/11 08:11:00;;;;;;;2.80;1.40;;;;;;;34.08;26.62;100930.53;5036232;28;20148;-65
2022/05/11 08:13:25;;;;;;;4.18;1.17;;;;;;;34.15;26.59;100930.22;5036143;28;20021;-64
2022/05/11 08:15:50;;;;;;;1.88;0.93;;;;;;;34.21;26.86;100927.16;5036185;28;20030;-65
2022/05/11 08:18:16;;;;;;;3.60;1.23;;;;;;;34.21;26.51;100923.53;5036533;28;20026;-66
2022/05/11 08:20:43;;;;;;;1.40;1.30;;;;;;;34.18;25.81;100924.94;5036297;28;20033;-64
2022/05/11 08:23:09;;;;;;;8.55;2.10;;;;;;;34.34;26.39;100925.72;5035894;28;20399;-65
2022/05/11 08:25:37;;;;;;;4.15;1.10;;;;;;;34.46;26.59;100934.56;5036044;28;20041;-65
2022/05/11 08:28:11;;;;;;;4.30;1.10;;;;;;;34.58;26.16;100932.31;5035958;28;20412;-65
2022/05/11 08:33:24;;;;;;;1.42;1.00;;;;;;;34.84;26.28;100924.69;5035624;28;20025;-65
2022/05/11 08:35:52;;;;;;;1.92;0.93;;;;;;;34.95;25.30;100921.50;5018635;28;20025;-65
2022/05/11 08:38:20;;;;;;;1.48;0.90;;;;;;;35.01;25.25;100920.38;5035566;28;20151;-65
2022/05/11 08:40:50;;;;;;;1.90;0.80;;;;;;;35.15;25.68;100919.78;5035555;28;20036;-64
2022/05/11 08:43:17;;;;;;;6.05;0.88;;;;;;;35.32;25.97;100932.16;5017751;28;20502;-65
2022/05/11 08:45:45;;;;;;;4.20;1.58;;;;;;;35.46;25.65;100926.75;5018064;28;20442;-64
2022/05/11 08:48:39;;;;;;;2.05;0.93;;;;;;;35.57;25.37;100922.78;5035540;28;20053;-64
2022/05/11 08:51:07;;;;;;;1.50;0.88;;;;;;;35.65;25.58;100919.38;5034689;28;20112;-64
2022/05/11 08:53:38;;;;;;;3.55;0.90;;;;;;;35.69;25.17;100914.03;5035397;28;20224;-67
2022/05/11 08:56:10;;;;;;;3.35;1.17;;;;;;;35.72;25.10;100919.84;5035225;28;20057;-66
2022/05/11 08:58:48;;;;;;;2.20;0.90;;;;;;;35.74;24.58;100906.44;5035252;28;20036;-66
2022/05/11 09:01:34;;;;;;;3.30;1.52;;;;;;;35.86;25.37;100909.66;5017866;28;20040;-66
2022/05/11 09:04:06;;;;;;;4.05;2.25;;;;;;;35.89;24.80;100913.81;5017855;28;20079;-66
2022/05/11 09:06:31;;;;;;;2.72;1.02;;;;;;;35.95;24.71;100916.28;5017715;28;20025;-64
2022/05/11 09:09:00;;;;;;;1.33;1.23;;;;;;;35.97;24.91;100916.81;5035368;28;20105;-65
2022/05/11 09:11:41;;;;;;;3.97;0.80;;;;;;;36.02;24.49;100901.94;5035043;28;20562;-65
2022/05/11 09:14:07;;;;;;;5.20;1.00;;;;;;;36.11;24.81;100901.06;5035102;28;20017;-64
2022/05/11 09:16:42;;;;;;;5.90;0.98;;;;;;;36.24;24.54;100904.25;5034925;28;20079;-65
2022/05/11 09:19:15;;;;;;;1.48;0.90;;;;;;;36.34;24.55;100902.16;5035168;28;20025;-65
2022/05/11 09:21:48;;;;;;;3.70;1.00;;;;;;;36.44;24.33;100895.59;5035093;28;20038;-66
2022/05/11 09:24:25;;;;;;;1.20;0.80;;;;;;;36.51;24.67;100890.53;5034958;28;20029;-65
2022/05/11 09:27:21;;;;;;;4.63;0.85;;;;;;;36.62;24.84;100883.69;5035198;28;20025;-66
2022/05/11 09:30:14;;;;;;;1.17;1.08;;;;;;;36.64;23.96;100887.81;5034735;28;20065;-66
2022/05/11 09:32:42;;;;;;;1.48;1.02;;;;;;;36.73;24.16;100888.81;5033764;28;20128;-65
2022/05/11 09:35:14;;;;;;;2.22;0.80;;;;;;;36.83;24.36;100896.19;5017357;28;20025;-65
2022/05/11 09:37:42;;;;;;;6.13;1.15;;;;;;;36.94;24.20;100882.91;5034612;28;20387;-65
2022/05/11 09:40:21;;;;;;;2.05;0.90;;;;;;;37.05;23.96;100888.06;5034725;28;20030;-65
2022/05/11 09:42:59;;;;;;;7.38;1.73;;;;;;;37.02;23.96;100879.47;5017818;28;20033;-66
2022/05/11 09:45:47;;;;;;;2.38;0.85;;;;;;;37.07;23.95;100869.06;5034390;28;20056;-66
2022/05/11 09:48:18;;;;;;;2.95;1.13;;;;;;;37.08;23.60;100870.69;5034128;28;20042;-64
2022/05/11 09:50:44;;;;;;;4.88;1.27;;;;;;;37.23;23.65;100875.22;5034628;28;20065;-66
2022/05/11 09:53:34;;;;;;;3.70;1.67;;;;;;;37.57;23.75;100872.97;5034602;28;20022;-65
2022/05/11 09:56:18;;;;;;;3.15;2.90;;;;;;;38.15;23.39;100872.41;5016610;28;20060;-66
2022/05/11 09:58:44;;;;;;;9.40;8.02;;;;;;;38.83;23.03;100880.75;5016932;28;20033;-66
2022/05/11 10:01:12;;;;;;;2.00;1.20;;;;;;;39.56;22.20;100883.16;5034577;28;20029;-66
2022/05/11 10:03:42;;;;;;;1.73;1.20;;;;;;;40.65;21.33;100880.31;5033777;28;20029;-64
2022/05/11 10:06:09;;;;;;;3.30;1.40;;;;;;;41.44;20.52;100879.16;5034241;28;20095;-66
2022/05/11 10:08:37;;;;;;;2.92;0.95;;;;;;;41.12;21.10;100875.72;5016752;28;20044;-65
2022/05/11 10:11:18;;;;;;;3.83;1.15;;;;;;;40.39;20.87;100871.00;5016734;28;20025;-66
2022/05/11 10:14:02;;;;;;;3.60;1.02;;;;;;;39.88;22.04;100882.00;5016485;28;20562;-65
2022/05/11 10:22:36;;;;;;;2.47;0.82;;;;;;;39.57;22.13;100863.19;5033821;28;20509;-65
2022/05/11 10:25:06;;;;;;;2.17;1.48;;;;;;;39.74;22.00;100859.66;5004627;28;20042;-66
2022/05/11 10:27:42;;;;;;;1.48;1.00;;;;;;;39.90;21.22;100857.25;5033884;28;20139;-65
2022/05/11 10:30:17;;;;;;;4.22;1.30;;;;;;;39.91;21.57;100847.69;4999821;28;20033;-65
2022/05/11 10:33:01;;;;;;;3.30;1.52;;;;;;;40.02;21.20;100849.03;5033453;28;20027;-65
2022/05/11 10:35:32;;;;;;;3.85;1.50;;;;;;;40.16;21.48;100838.53;5033551;28;20022;-65
2022/05/11 10:38:11;;;;;;;2.75;1.70;;;;;;;40.28;21.98;100843.53;5015972;28;20031;-65
2022/05/11 10:40:43;;;;;;;2.35;1.48;;;;;;;40.46;21.25;100834.78;5033479;28;20036;-65
2022/05/11 10:43:31;;;;;;;1.67;1.33;;;;;;;40.69;21.15;100825.09;5033559;28;20033;-66
2022/05/11 10:46:09;;;;;;;1.30;0.93;;;;;;;41.00;20.61;100826.94;5015884;28;20053;-66
2022/05/11 10:48:58;;;;;;;3.03;1.40;;;;;;;41.02;21.00;100827.41;5033452;28;20437;-65
2022/05/11 10:52:01;;;;;;;5.65;1.48;;;;;;;41.02;20.81;100830.22;5033884;28;20087;-65
2022/05/11 10:54:45;;;;;;;2.50;1.55;;;;;;;41.15;20.62;100826.44;5015770;28;20390;-65
2022/05/11 10:57:29;;;;;;;5.25;1.77;;;;;;;41.35;20.38;100820.09;5033652;28;20168;-65
2022/05/11 11:00:12;;;;;;;2.38;1.70;;;;;;;41.46;20.68;100815.75;5033614;28;20481;-65
2022/05/11 11:03:01;;;;;;;8.82;1.65;;;;;;;41.47;20.21;100819.41;5034127;28;20491;-65
2022/05/11 11:07:11;;;;;;;2.67;1.42;;;;;;;41.53;20.54;100810.47;5033944;28;20061;-66
2022/05/11 11:08:44;;;;;;;3.03;1.63;;;;;;;41.63;20.18;100815.69;5033399;28;20061;-66
2022/05/11 11:11:15;;;;;;;1.80;1.67;;;;;;;41.78;20.21;100806.72;5016113;28;20037;-66
2022/05/11 11:14:01;;;;;;;3.75;2.00;;;;;;;41.82;19.92;100806.06;5017488;28;20023;-65
2022/05/11 11:16:31;;;;;;;3.70;1.98;;;;;;;41.80;20.18;100801.59;5020488;28;20033;-66
2022/05/11 11:18:57;;;;;;;6.97;1.50;;;;;;;41.85;19.96;100799.75;5019583;28;20026;-66
2022/05/11 11:21:23;;;;;;;2.67;1.42;;;;;;;41.83;20.10;100802.91;5037325;28;20029;-66
2022/05/11 11:24:22;;;;;;;2.35;1.48;;;;;;;41.88;20.05;100785.00;5019582;28;20021;-66
2022/05/11 11:26:49;;;;;;;2.67;1.33;;;;;;;41.93;19.92;100793.25;5037784;28;20128;-64
2022/05/11 11:29:18;;;;;;;1.88;1.20;;;;;;;42.00;19.80;100801.97;5037461;28;20055;-65
2022/05/11 11:31:59;;;;;;;9.23;1.88;;;;;;;42.01;19.64;100790.38;5036957;28;20041;-66
2022/05/11 11:34:30;;;;;;;2.58;1.50;;;;;;;42.02;19.72;100779.94;5037636;28;20414;-65
2022/05/11 11:36:55;;;;;;;4.15;1.73;;;;;;;42.10;19.64;100776.25;5038125;28;20057;-65
2022/05/11 11:39:55;;;;;;;3.38;1.13;;;;;;;42.14;19.62;100757.47;5037210;28;20033;-66
2022/05/11 11:42:29;;;;;;;2.83;1.33;;;;;;;42.09;19.64;100771.78;5037179;28;20033;-66
2022/05/11 11:44:55;;;;;;;7.35;1.60;;;;;;;42.12;19.63;100771.09;5037277;28;20029;-65
2022/05/11 11:47:26;;;;;;;2.10;1.25;;;;;;;42.17;19.57;100759.66;5037296;28;20029;-65
2022/05/11 11:49:52;;;;;;;;;;;;;;;42.24;19.65;100762.75;5037444;28;20101;-66
2022/05/11 11:52:45;;;;;;;2.03;1.50;;;;;;;42.23;19.81;100742.22;5019419;28;19948;-66
2022/05/11 11:55:27;;;;;;;1.52;1.10;;;;;;;42.27;19.71;100762.06;5036962;28;20045;-66
2022/05/11 11:57:57;;;;;;;4.47;1.00;;;;;;;42.27;19.51;100745.16;5036633;28;20030;-65
2022/05/11 12:00:24;;;;;;;3.15;1.65;;;;;;;42.28;19.64;100750.44;5019508;28;20025;-65
2022/05/11 12:02:50;;;;;;;5.43;1.77;;;;;;;42.34;19.57;100732.19;5036727;28;20033;-65
2022/05/11 12:05:27;;;;;;;5.13;1.05;;;;;;;42.41;19.55;100736.44;5036516;28;20550;-66